Albany, New Hampshire
Current Conditions -  °F | °C
As of 11:54 AM on Thursday 30 Oct 2014 (Local Time) from KIZG Reporting Station
Broken Clouds Broken Clouds  
Wind Chill: 52°   Ceiling: 6000
Heat Index: 52°   Visibility: 10mi
Dew Point: 36°   Wind: 12mph
Humidity: 54%   Direction: 330°NNW
Pressure: 29.9"   Gusts: 17mph
Location:  43.9735°N, 71.2576°W
Report Text: KIZG 301554Z AUTO 33010G15KT 10SM BKN060 BKN085 11/02 A2990 RMK AO2 SLP127 T01110022
Loading
Personal Weather Stations






























Interactive Weather Map New forecast layout! Learn more

10-Day Weather Forecast

Advertisements
Track Severe Weather on mobile